Home > Products > Valid Products > MTR

000
SAUS44 KMEG 300554
MTRTUP
METAR KTUP 300553Z AUTO 00000KT 9SM CLR 25/24 A3002 RMK AO2 SLP160
T02500239 10272 20250 403560250 51001





000
SAUS44 KMEG 300454
MTRTUP
METAR KTUP 300453Z AUTO 00000KT 9SM CLR 25/23 A3002 RMK AO2 SLP160
T02500233





000
SAUS44 KMEG 300454
MTRTUP
METAR KTUP 300453Z AUTO 00000KT 9SM CLR 25/23 A3002 RMK AO2 SLP160
T02500233





000
SAUS44 KMEG 300354
MTRTUP
METAR KTUP 300353Z AUTO 00000KT 10SM CLR 26/23 A3002 RMK AO2 SLP159
T02560233





000
SAUS44 KMEG 300254
MTRTUP
METAR KTUP 300253Z 00000KT 10SM CLR 26/23 A3002 RMK AO2 SLP159
T02610233 53012





000
SAUS44 KMEG 300154
MTRTUP
METAR KTUP 300153Z 00000KT 10SM CLR 26/23 A3000 RMK AO2 SLP153
T02560233





000
SAUS44 KMEG 300054
MTRTUP
METAR KTUP 300053Z 00000KT 10SM CLR 27/23 A2999 RMK AO2 SLP151
T02720228





000
SAUS44 KMEG 292354
MTRTUP
METAR KTUP 292353Z 25004KT 10SM CLR 27/23 A2998 RMK AO2 SLP148 60009
T02720228 10356 20256 55004





000
SAUS44 KMEG 292254
MTRTUP
METAR KTUP 292253Z 21006KT 10SM CLR 27/23 A2998 RMK AO2 SLP147
T02720228





000
SAUS44 KMEG 292154
MTRTUP
METAR KTUP 292153Z 22007KT 10SM CLR 27/23 A2999 RMK AO2 SLP149
T02670228





000
SAUS44 KMEG 292054
MTRTUP
METAR KTUP 292053Z 21003KT 10SM CLR 27/23 A2999 RMK AO2 SLP152 60009
T02670228 56006





000
SAUS44 KMEG 291954
MTRTUP
METAR KTUP 291953Z AUTO 15004KT 10SM CLR 27/23 A3000 RMK AO2 LTG
DSNT E-SW RAE08 TSE24 SLP152 P0004 T02670228





000
SAUS44 KMEG 291931
MTRTUP
SPECI KTUP 291930Z 15006KT 10SM VCTS CLR 27/22 A3000 RMK AO2 LTG
DSNT E-SW RAE08 TSE24 P0004 T02670222





000
SAUS44 KMEG 291931
MTRTUP
SPECI KTUP 291930Z 15006KT 10SM VCTS CLR 27/22 A3000 RMK AO2 LTG
DSNT E-SW RAE08 TSE24 P0004 T02670222





000
SAUS44 KMEG 291905
MTRTUP
SPECI KTUP 291904Z 17005KT 8SM -TSRA FEW044 SCT060 BKN080 26/22
A3001 RMK AO2 LTG DSNT ALQDS P0004 T02610222





000
SAUS44 KMEG 291905
MTRTUP
SPECI KTUP 291904Z 17005KT 8SM -TSRA FEW044 SCT060 BKN080 26/22
A3001 RMK AO2 LTG DSNT ALQDS P0004 T02610222





000
SAUS44 KMEG 291854
MTRTUP
METAR KTUP 291853Z 13007KT 2 1/2SM +TSRA SCT039 BKN050 OVC110 26/22
A3001 RMK AO2 PK WND 04027/1829 WSHFT 1828 LTG DSNT ALQDS RAB44
TSB20 SLP156 P0005 T02560217





000
SAUS44 KMEG 291854
MTRTUP
METAR KTUP 291853Z 13007KT 2 1/2SM +TSRA SCT039 BKN050 OVC110 26/22
A3001 RMK AO2 PK WND 04027/1829 WSHFT 1828 LTG DSNT ALQDS RAB44
TSB20 SLP156 P0005 T02560217





000
SAUS44 KMEG 291849
MTRTUP
SPECI KTUP 291848Z 08014KT 5SM TSRA SCT040 BKN050 OVC085 27/22 A3001
RMK AO2 PK WND 04027/1829 WSHFT 1828 LTG DSNT NE-SE RAB44 TSB20
P0000





000
SAUS44 KMEG 291827
MTRTUP
SPECI KTUP 291826Z 35007KT 10SM TS BKN042 34/24 A3001 RMK AO2 LTG
DSNT ALQDS TSB20 T03390239





000
SAUS44 KMEG 291801
MTRTUP
SPECI KTUP 291801Z 32007KT 10SM VCTS FEW040 35/24 A3001 RMK AO2 LTG
DSNT N AND W T03500244





000
SAUS44 KMEG 291801
MTRTUP
SPECI KTUP 291801Z 32007KT 10SM VCTS FEW040 35/24 A3001 RMK AO2 LTG
DSNT N AND W T03500244





000
SAUS44 KMEG 291754
MTRTUP
METAR KTUP 291753Z 01005KT 10SM FEW040 35/24 A3001 RMK AO2 LTG DSNT
N AND W SLP158 T03500239 10356 20267 58011





000
SAUS44 KMEG 291654
MTRTUP
METAR KTUP 291653Z 01007KT 10SM CLR 34/24 A3003 RMK AO2 SLP164
T03440239





000
SAUS44 KMEG 291554
MTRTUP
METAR KTUP 291553Z 35003KT 10SM CLR 33/24 A3004 RMK AO2 SLP166
T03330244





000
SAUS44 KMEG 291454
MTRTUP
METAR KTUP 291453Z 32005KT 10SM CLR 32/24 A3005 RMK AO2 SLP169
T03170244 51006 $





000
SAUS44 KMEG 291454
MTRTUP
METAR KTUP 291453Z 32005KT 10SM CLR 32/24 A3005 RMK AO2 SLP169
T03170244 51006 $





000
SAUS44 KMEG 291354
MTRTUP
METAR KTUP 291353Z 00000KT 10SM CLR 28/25 A3004 RMK AO2 SLP168
T02830250 $





000
SAUS44 KMEG 291254
MTRTUP
METAR KTUP 291253Z 00000KT 10SM BKN100 BKN120 27/24 A3004 RMK AO2
SLP166 T02720244 $





000
SAUS44 KMEG 291254
MTRTUP
METAR KTUP 291253Z 00000KT 10SM BKN100 BKN120 27/24 A3004 RMK AO2
SLP166 T02720244 $





000
SAUS44 KMEG 291154
MTRTUP
METAR KTUP 291153Z 00000KT 9SM OVC095 27/24 A3003 RMK AO2 SLPNO
T02670244 10272 20256 51021 $





000
SAUS44 KMEG 291054
MTRTUP
METAR KTUP 291053Z 00000KT 10SM BKN095 26/24 A3001 RMK AO2 SLP156
T02610244 $





000
SAUS44 KMEG 290954
MTRTUP
METAR KTUP 290953Z AUTO 04005KT 10SM CLR 26/24 A2999 RMK AO2 SLP150
T02610244 $





000
SAUS44 KMEG 290854
MTRTUP
METAR KTUP 290853Z AUTO 00000KT 9SM CLR 26/25 A2997 RMK AO2 SLP142
T02610250 50000 $





000
SAUS44 KMEG 290754
MTRTUP
METAR KTUP 290753Z AUTO 04006KT 10SM CLR 26/24 A2997 RMK AO2 SLP144
T02610244 $





000
SAUS44 KMEG 290654
MTRTUP
METAR KTUP 290653Z AUTO 00000KT 10SM CLR 27/24 A2996 RMK AO2 SLP140
T02720244 $





000
SAUS44 KMEG 290554
MTRTUP
METAR KTUP 290553Z AUTO 22004KT 8SM CLR 27/26 A2997 RMK AO2 SLP141
T02720256 10339 20272 403670250 58009 $





000
SAUS44 KMEG 290554
MTRTUP
METAR KTUP 290553Z AUTO 22004KT 8SM CLR 27/26 A2997 RMK AO2 SLP141
T02720256 10339 20272 403670250 58009 $





000
SAUS44 KMEG 290454
MTRTUP
METAR KTUP 290453Z AUTO 00000KT 10SM CLR 28/24 A3000 RMK AO2 SLP153
T02780239 $





000
SAUS44 KMEG 290354
MTRTUP
METAR KTUP 290353Z AUTO 00000KT 10SM CLR 28/25 A3000 RMK AO2 SLP154
T02830250 $





000
SAUS44 KMEG 290354
MTRTUP
METAR KTUP 290353Z AUTO 00000KT 10SM CLR 28/25 A3000 RMK AO2 SLP154
T02830250 $





000
SAUS44 KMEG 290254
MTRTUP
METAR KTUP 290253Z 00000KT 10SM CLR 29/25 A2999 RMK AO2 SLP151
T02890250 $





000
SAUS44 KMEG 290154
MTRTUP
METAR KTUP 290153Z 00000KT 10SM CLR 30/24 A2996 RMK AO2 SLP140
T03000244 $





000
SAUS44 KMEG 290055
MTRTUP
METAR KTUP 290053Z 00000KT 10SM CLR 32/23 A2994 RMK AO2 SLP134
T03220233 $





000
SAUS44 KMEG 282254
MTRTUP
METAR KTUP 282253Z AUTO 34/22 A2995 RMK AO2 SLP136 T03440222 $





000
SAUS44 KMEG 282154
MTRTUP
METAR KTUP 282153Z 32005KT 10SM CLR 35/21 A2996 RMK AO2 SLP139
T03500206





000
SAUS44 KMEG 282054
MTRTUP
METAR KTUP 282053Z 33006KT 10SM CLR 36/22 A2997 RMK AO2 SLP143
T03560222 58012





000
SAUS44 KMEG 281954
MTRTUP
METAR KTUP 281953Z 27005KT 10SM FEW050 36/22 A2999 RMK AO2 SLP148
T03610222





000
SAUS44 KMEG 281954
MTRTUP
METAR KTUP 281953Z 27005KT 10SM FEW050 36/22 A2999 RMK AO2 SLP148
T03610222





000
SAUS44 KMEG 281854
MTRTUP
METAR KTUP 281853Z 00000KT 10SM CLR 35/21 A3000 RMK AO2 SLP152
T03500211





000
SAUS44 KMEG 281754
MTRTUP
METAR KTUP 281753Z 27005KT 10SM CLR 35/22 A3001 RMK AO2 SLP155
T03500217 10356 20261 58001





000
SAUS44 KMEG 281654
MTRTUP
METAR KTUP 281653Z 25005KT 10SM CLR 35/22 A3002 RMK AO2 SLP158
T03500222





000
SAUS44 KMEG 281554
MTRTUP
METAR KTUP 281553Z 27005KT 10SM CLR 34/22 A3002 RMK AO2 SLP159
T03390222





000
SAUS44 KMEG 281454
MTRTUP
METAR KTUP 281453Z 28003KT 10SM CLR 33/24 A3001 RMK AO2 SLP156
T03280239 50006





000
SAUS44 KMEG 281454
MTRTUP
METAR KTUP 281453Z 28003KT 10SM CLR 33/24 A3001 RMK AO2 SLP156
T03280239 50006





000
SAUS44 KMEG 281354
MTRTUP
METAR KTUP 281353Z 00000KT 10SM CLR 31/24 A3002 RMK AO2 SLP159
T03110244





000
SAUS44 KMEG 281354
MTRTUP
METAR KTUP 281353Z 00000KT 10SM CLR 31/24 A3002 RMK AO2 SLP159
T03110244





000
SAUS44 KMEG 281254
MTRTUP
METAR KTUP 281253Z 19003KT 10SM CLR 28/24 A3001 RMK AO2 SLP156
T02780244





000
SAUS44 KMEG 281254
MTRTUP
METAR KTUP 281253Z 19003KT 10SM CLR 28/24 A3001 RMK AO2 SLP156
T02780244





000
SAUS44 KMEG 281154
MTRTUP
METAR KTUP 281153Z 00000KT 6SM BR CLR 26/24 A2999 RMK AO2 SLP150
T02560244 10267 20250 53012 $





000
SAUS44 KMEG 281154
MTRTUP
METAR KTUP 281153Z 00000KT 6SM BR CLR 26/24 A2999 RMK AO2 SLP150
T02560244 10267 20250 53012 $





000
SAUS44 KMEG 281054
MTRTUP
METAR KTUP 281053Z 00000KT 7SM CLR 26/24 A2998 RMK AO2 SLP145
T02560239 $





000
SAUS44 KMEG 280954
MTRTUP
METAR KTUP 280953Z AUTO 00000KT 8SM CLR 26/24 A2996 RMK AO2 SLP140
T02610244 $





000
SAUS44 KMEG 280854
MTRTUP
METAR KTUP 280853Z AUTO 27003KT 8SM CLR 26/24 A2995 RMK AO2 SLP138
T02610239 55001 $





000
SAUS44 KMEG 280754
MTRTUP
METAR KTUP 280753Z AUTO 00000KT 8SM CLR 26/24 A2995 RMK AO2 SLP136
T02610244 $





000
SAUS44 KMEG 280654
MTRTUP
METAR KTUP 280653Z AUTO 00000KT 8SM CLR 27/25 A2996 RMK AO2 SLP139
T02670250 $





000
SAUS44 KMEG 280654
MTRTUP
METAR KTUP 280653Z AUTO 00000KT 8SM CLR 27/25 A2996 RMK AO2 SLP139
T02670250 $





000
SAUS44 KMEG 280554
MTRTUP
METAR KTUP 280553Z AUTO 00000KT 9SM CLR 27/25 A2996 RMK AO2 SLP138
T02670250 10333 20267 403610244 58001 $





000
SAUS44 KMEG 280554
MTRTUP
METAR KTUP 280553Z AUTO 00000KT 9SM CLR 27/25 A2996 RMK AO2 SLP138
T02670250 10333 20267 403610244 58001 $





000
SAUS44 KMEG 280454
MTRTUP
METAR KTUP 280453Z AUTO 00000KT 10SM CLR 27/25 A2997 RMK AO2 SLP145
T02720250 $





000
SAUS44 KMEG 280454
MTRTUP
METAR KTUP 280453Z AUTO 00000KT 10SM CLR 27/25 A2997 RMK AO2 SLP145
T02720250 $





000
SAUS44 KMEG 280354
MTRTUP
METAR KTUP 280353Z AUTO 00000KT 10SM CLR 27/25 A2997 RMK AO2 SLP144
T02720250 $





000
SAUS44 KMEG 280254
MTRTUP
METAR KTUP 280253Z 00000KT 10SM CLR 29/25 A2996 RMK AO2 SLP139
T02890250 53014 $





000
SAUS44 KMEG 280254
MTRTUP
METAR KTUP 280253Z 00000KT 10SM CLR 29/25 A2996 RMK AO2 SLP139
T02890250 53014 $





000
SAUS44 KMEG 280154
MTRTUP
METAR KTUP 280153Z 00000KT 10SM CLR 30/25 A2994 RMK AO2 SLP133
T03000250 $





000
SAUS44 KMEG 280054
MTRTUP
METAR KTUP 280053Z 00000KT 10SM CLR 32/24 A2993 RMK AO2 SLP130
T03170244 $





000
SAUS44 KMEG 272354
MTRTUP
METAR KTUP 272353Z 22004KT 10SM CLR 33/23 A2992 RMK AO2 SLP125
T03330233 10361 20333 56008 $





000
SAUS44 KMEG 272254
MTRTUP
METAR KTUP 272253Z 27003KT 10SM CLR 35/23 A2992 RMK AO2 SLP127
T03500228 $





000
SAUS44 KMEG 272155
MTRTUP
METAR KTUP 272153Z 20005KT 10SM CLR 35/22 A2993 RMK AO2 SLP129
T03500222 $





000
SAUS44 KMEG 272054
MTRTUP
METAR KTUP 272053Z VRB04KT 10SM FEW050 36/22 A2994 RMK AO2 SLP134
T03560222 56013 $





000
SAUS44 KMEG 271954
MTRTUP
METAR KTUP 271953Z 20003KT 10SM CLR 36/22 A2995 RMK AO2 SLP137
T03560217 $





000
SAUS44 KMEG 271954
MTRTUP
METAR KTUP 271953Z 20003KT 10SM CLR 36/22 A2995 RMK AO2 SLP137
T03560217 $





000
SAUS44 KMEG 271854
MTRTUP
METAR KTUP 271853Z VRB03KT 10SM CLR 35/22 A2997 RMK AO2 SLP142
T03500222 $





000
SAUS44 KMEG 271754
MTRTUP
METAR KTUP 271753Z VRB06KT 10SM FEW042 34/23 A2998 RMK AO2 SLP147
T03390228 10344 20256 58008 $





000
SAUS44 KMEG 271754
MTRTUP
METAR KTUP 271753Z VRB06KT 10SM FEW042 34/23 A2998 RMK AO2 SLP147
T03390228 10344 20256 58008 $





000
SAUS44 KMEG 271654
MTRTUP
METAR KTUP 271653Z 25007KT 10SM CLR 34/23 A2999 RMK AO2 SLP151
T03390228 $





000
SAUS44 KMEG 271654
MTRTUP
METAR KTUP 271653Z 25007KT 10SM CLR 34/23 A2999 RMK AO2 SLP151
T03390228 $





000
SAUS44 KMEG 271554
MTRTUP
METAR KTUP 271553Z 30003KT 10SM CLR 33/23 A3000 RMK AO2 SLP154
T03280228 $





000
SAUS44 KMEG 271554
MTRTUP
METAR KTUP 271553Z 30003KT 10SM CLR 33/23 A3000 RMK AO2 SLP154
T03280228 $





000
SAUS44 KMEG 271454
MTRTUP
METAR KTUP 271453Z 00000KT 10SM CLR 31/23 A3001 RMK AO2 SLP155
T03110233 51009 $





000
SAUS44 KMEG 271454
MTRTUP
METAR KTUP 271453Z 00000KT 10SM CLR 31/23 A3001 RMK AO2 SLP155
T03110233 51009 $





000
SAUS44 KMEG 271354
MTRTUP
METAR KTUP 271353Z 00000KT 10SM CLR 29/24 A3000 RMK AO2 SLP153
T02940239 $





000
SAUS44 KMEG 271254
MTRTUP
METAR KTUP 271253Z 21004KT 10SM CLR 27/23 A2999 RMK AO2 SLP149
T02670233 $





000
SAUS44 KMEG 271254
MTRTUP
METAR KTUP 271253Z 21004KT 10SM CLR 27/23 A2999 RMK AO2 SLP149
T02670233 $





000
SAUS44 KMEG 271154
MTRTUP
METAR KTUP 271153Z 00000KT 10SM CLR 26/23 A2998 RMK AO2 SLP147
T02560233 10267 20244 51013 $





000
SAUS44 KMEG 271054
MTRTUP
METAR KTUP 271053Z 00000KT 10SM CLR 25/23 A2997 RMK AO2 SLP144
T02500233 $





000
SAUS44 KMEG 270954
MTRTUP
METAR KTUP 270953Z AUTO 00000KT 10SM CLR 24/23 A2996 RMK AO2 SLPNO
T02440228 $





000
SAUS44 KMEG 270854
MTRTUP
METAR KTUP 270853Z AUTO 00000KT 10SM CLR 25/23 A2994 RMK AO2 SLP133
T02500233 53000 $





000
SAUS44 KMEG 270755
MTRTUP
METAR KTUP 270753Z AUTO 00000KT 10SM CLR 25/23 A2993 RMK AO2 SLP131
T02500233 $





000
SAUS44 KMEG 270755
MTRTUP
METAR KTUP 270753Z AUTO 00000KT 10SM CLR 25/23 A2993 RMK AO2 SLP131
T02500233 $





000
SAUS44 KMEG 270654
MTRTUP
METAR KTUP 270653Z AUTO 21003KT 10SM CLR 26/23 A2993 RMK AO2 SLP129
T02560233 $





000
SAUS44 KMEG 270654
MTRTUP
METAR KTUP 270653Z AUTO 21003KT 10SM CLR 26/23 A2993 RMK AO2 SLP129
T02560233 $





    US Dept of Commerce
    National Oceanic and Atmospheric Administration
    National Weather Service
    1325 East West Highway
    Silver Spring, MD 20910
    Page Author: NWS Internet Services Team
Disclaimer
Information Quality
Credits
Glossary
Privacy Policy
Freedom of Information Act (FOIA)
About Us
Career Opportunities